Treviso-Sant'Angelo Airport

LIPH · 威尼托, 意大利

METAR的历史 LIPH · Treviso-Sant'Angelo Airport

下面你可以看到过去几天的METARs。 选择年份以浏览从2007年开始的旧METAR。

2024年4月17日

时间 代码 天气 温度 能见度 天花板 METAR/SPECI
20:20
V
11 °C 10 km+ - Var Var 1 kt METAR LIPH 171820Z VRB01KT 9999 SCT080 11/04 Q1005
19:50
V
11 °C 10 km+ 6.000 ft 250° 250° 7 kt METAR LIPH 171750Z 25007KT 9999 BKN060 11/04 Q1005
19:20
V
11 °C 10 km+ 6.000 ft 260° 260° 9 kt METAR LIPH 171720Z 26009KT 240V300 9999 BKN060 11/04 Q1005
18:50
V
11 °C 10 km+ 6.000 ft Var Var 2 kt METAR LIPH 171650Z VRB02KT 9999 BKN060 11/05 Q1006
18:20
V
11 °C 10 km+ 5.000 ft 180° 180° 5 kt METAR LIPH 171620Z 18005KT 150V260 9999 BKN050 11/05 Q1005 RETSRA
17:50
V
10 °C 10 km+ 5.000 ft 190° 190° 7 kt METAR LIPH 171550Z 19007KT 160V220 9999 BKN050 10/05 Q1005 RETSRA
17:20
V
10 °C 10 km+ 5.000 ft 200° 200° 6 kt METAR LIPH 171520Z 20006KT 9999 TSRA BKN050CB 10/07 Q1005
16:50
V
11 °C 10 km+ 5.000 ft 340° 340° 3 kt METAR LIPH 171450Z 34003KT 230V030 9999 TSRA BKN050CB 11/07 Q1006
16:20
V
13 °C 10 km+ 5.000 ft 350° 350° 5 kt METAR LIPH 171420Z 35005KT 310V030 9999 TSRA BKN050CB 13/03 Q1004
15:50
V
13 °C 10 km+ 5.000 ft 230° 230° 9 kt METAR LIPH 171350Z 23009KT 9999 TS BKN050CB 13/03 Q1004
15:20
V
15 °C 10 km+ 4.000 ft 160° 160° 7 kt METAR LIPH 171320Z 16007KT 130V190 9999 TS BKN040CB 15/08 Q1004
14:50
V
16 °C 10 km+ 4.000 ft Var Var 4 kt METAR LIPH 171250Z VRB04KT 9999 BKN040 16/08 Q1004
14:20
V
17 °C 10 km+ 4.000 ft 130° 130° 7 kt METAR LIPH 171220Z 13007KT 080V160 9999 BKN040 17/08 Q1004
13:50
V
17 °C 10 km+ - 130° 130° 7 kt METAR LIPH 171150Z 13007KT 100V190 9999 FEW040 17/09 Q1004
13:20
V
16 °C 10 km+ - Var Var 3 kt METAR LIPH 171120Z VRB03KT 9999 FEW050 16/06 Q1004
12:50
V
16 °C 10 km+ - Var Var 3 kt METAR LIPH 171050Z AUTO VRB03KT 9999 FEW150/// 16/07 Q1004
12:20
V
15 °C 10 km+ - Var Var 2 kt METAR LIPH 171020Z AUTO VRB02KT 9999 NCD 15/07 Q1004
11:50
V
14 °C 10 km+ - Var Var 2 kt METAR LIPH 170950Z AUTO VRB02KT 9999 NCD 14/06 Q1005
11:20
V
13 °C 10 km+ - Var Var 2 kt METAR LIPH 170920Z AUTO VRB02KT 9999 SCT130/// 13/05 Q1005
10:50
V
13 °C 10 km+ 13.000 ft Var Var 3 kt METAR LIPH 170850Z AUTO VRB03KT 9999 BKN130/// 13/06 Q1005
10:20
V
13 °C 10 km+ - 210° 210° 3 kt METAR LIPH 170820Z AUTO 21003KT 160V330 9999 FEW150/// SCT190/// 13/06 Q1005
09:50
V
12 °C 10 km+ - Var Var 2 kt METAR LIPH 170750Z AUTO VRB02KT 9999 SCT200/// 12/05 Q1005
09:20
V
11 °C 10 km+ - 130° 130° 3 kt METAR LIPH 170720Z AUTO 13003KT 070V190 9999 NCD 11/06 Q1005
08:50
V
10 °C 10 km+ - Var Var 2 kt METAR LIPH 170650Z AUTO VRB02KT 9999 NCD 10/05 Q1005
08:20
V
9 °C 10 km+ - Var Var 2 kt METAR LIPH 170620Z AUTO VRB02KT 9999 NCD 09/05 Q1005
07:50
V
8 °C 10 km+ - Var Var 2 kt METAR LIPH 170550Z AUTO VRB02KT 9999 SCT200/// 08/04 Q1005
07:20
V
7 °C 10 km+ 19.000 ft Var Var 1 kt METAR LIPH 170520Z AUTO VRB01KT 9999 BKN190/// 07/05 Q1005
06:50
V
6 °C 10 km+ 19.000 ft Var Var 2 kt METAR LIPH 170450Z AUTO VRB02KT 9999 BKN190/// 06/04 Q1005
06:20
V
5 °C 10 km+ - Var Var 1 kt METAR LIPH 170420Z AUTO VRB01KT 9999 FEW200/// 05/03 Q1005
05:50
V
6 °C 10 km+ - Var Var 2 kt METAR LIPH 170350Z AUTO VRB02KT 9999 NCD 06/04 Q1005
05:20
V
5 °C 10 km+ - Var Var 1 kt METAR LIPH 170320Z AUTO VRB01KT 9999 NCD 05/03 Q1005
04:50
V
5 °C 10 km+ - Var Var 1 kt METAR LIPH 170250Z AUTO VRB01KT 9999 NCD 05/04 Q1005
04:20
V
6 °C 10 km+ - Var Var 2 kt METAR LIPH 170220Z AUTO VRB02KT 9999 NCD 06/04 Q1005
03:50
V
6 °C 10 km+ - 290° 290° 3 kt METAR LIPH 170150Z AUTO 29003KT 270V330 9999 NCD 06/04 Q1005
03:20
V
7 °C 10 km+ - 320° 320° 3 kt METAR LIPH 170120Z AUTO 32003KT 9999 NCD 07/03 Q1005
02:50
V
6 °C 10 km+ - 320° 320° 4 kt METAR LIPH 170050Z AUTO 32004KT 9999 NCD 06/04 Q1006
02:20
V
6 °C 10 km+ - 310° 310° 4 kt METAR LIPH 170020Z AUTO 31004KT 9999 NCD 06/04 Q1006
01:50
V
6 °C 10 km+ - 310° 310° 4 kt METAR LIPH 162350Z AUTO 31004KT 9999 NCD 06/04 Q1006
01:20
V
7 °C 10 km+ - 310° 310° 2 kt METAR LIPH 162320Z AUTO 31002KT 9999 NCD 07/04 Q1007
00:50
V
7 °C 10 km+ - 330° 330° 3 kt METAR LIPH 162250Z AUTO 33003KT 9999 NCD 07/04 Q1007
00:20
V
7 °C 10 km+ 16.000 ft 330° 330° 3 kt METAR LIPH 162220Z AUTO 33003KT 300V010 9999 BKN160/// 07/04 Q1007

2024年4月16日

时间 代码 天气 温度 能见度 天花板 METAR/SPECI
23:50
V
7 °C 10 km+ 15.000 ft 340° 340° 4 kt METAR LIPH 162150Z AUTO 34004KT 310V010 9999 BKN150/// 07/04 Q1007
23:20
V
7 °C 10 km+ 14.000 ft 320° 320° 4 kt METAR LIPH 162120Z AUTO 32004KT 9999 BKN140/// 07/05 Q1007
22:50
V
8 °C 10 km+ - 350° 350° 4 kt METAR LIPH 162050Z 35004KT CAVOK 08/04 Q1006
22:20
V
8 °C 10 km+ - 350° 350° 4 kt METAR LIPH 162020Z 35004KT 9999 SCT070 08/04 Q1006
21:50
V
8 °C 10 km+ 7.000 ft 050° 050° 6 kt METAR LIPH 161950Z 05006KT 010V080 9999 BKN070 08/04 Q1006
21:20
V
8 °C 10 km+ 7.000 ft 050° 050° 8 kt METAR LIPH 161920Z 05008KT 020V090 9999 BKN070 08/04 Q1006
20:50
V
8 °C 10 km+ 7.000 ft 080° 080° 10 kt METAR LIPH 161850Z 08010KT 9999 BKN070 08/04 Q1005
20:20
V
8 °C 10 km+ 7.000 ft 070° 070° 16 kt METAR LIPH 161820Z 07016KT 9999 FEW010 BKN070 08/05 Q1004
19:50
V
8 °C 10 km+ 7.000 ft 070° 070° 17 kt METAR LIPH 161750Z 07017KT 9999 BKN070 08/05 Q1003
19:20
V
9 °C 10 km+ 7.000 ft 060° 060° 21 kt METAR LIPH 161720Z 06021KT 9999 BKN070 09/05 Q1002
18:50
V
9 °C 10 km+ - 070° 070° 20 kt METAR LIPH 161650Z 07020KT 9999 SCT060 09/05 Q1002
18:20
V
9 °C 10 km+ - 070° 070° 21 kt METAR LIPH 161620Z 07021KT 9999 SCT060 09/06 Q1002
17:50
V
10 °C 10 km+ - 070° 070° 24 - 36 kt METAR LIPH 161550Z 07024G36KT 9999 SCT060 10/06 Q1001
17:20
V
11 °C 10 km+ 6.000 ft 060° 060° 22 - 32 kt METAR LIPH 161520Z 06022G32KT 9999 FEW010 BKN060 11/08 Q1000
16:50
V
12 °C 10 km+ 6.000 ft 060° 060° 17 - 27 kt METAR LIPH 161450Z 06017G27KT 9999 SCT010 BKN060 12/10 Q1000
16:20
V
13 °C 10 km+ 7.000 ft 020° 020° 11 kt METAR LIPH 161420Z 02011KT 360V060 9999 BKN070 13/10 Q0999 RETSRA
15:50
V
13 °C 10 km+ 6.000 ft 360° 360° 11 kt METAR LIPH 161350Z 36011KT 9999 SCT030 BKN060 13/10 Q0998 RETSRA
15:20
M
16 °C 8 km 2.000 ft 330° 330° 15 kt METAR LIPH 161320Z 33015KT 300V010 8000 -TSRA SCT010CB BKN020 16/08 Q0998
14:50
V
22 °C 10 km+ 4.000 ft 190° 190° 8 kt METAR LIPH 161250Z 19008KT 150V220 9999 VCTS BKN040CB 22/12 Q0996
14:20
V
22 °C 10 km+ 4.000 ft 200° 200° 8 kt METAR LIPH 161220Z 20008KT 150V240 9999 BKN040 22/13 Q0996
13:50
V
22 °C 10 km+ - 200° 200° 8 kt METAR LIPH 161150Z 20008KT 160V240 9999 SCT040 22/13 Q0996
13:20
V
22 °C 10 km+ - 220° 220° 9 kt METAR LIPH 161120Z 22009KT 9999 SCT040 22/13 Q0997
12:50
V
20 °C 10 km+ 4.000 ft 210° 210° 9 kt METAR LIPH 161050Z 21009KT 170V250 9999 BKN040 20/13 Q0997
12:20
V
20 °C 10 km+ - 200° 200° 5 kt METAR LIPH 161020Z 20005KT 120V270 9999 SCT030 20/13 Q0998
11:50
V
20 °C 10 km+ - Var Var 2 kt METAR LIPH 160950Z VRB02KT CAVOK 20/13 Q0998
11:20
V
19 °C 10 km+ - 140° 140° 4 kt METAR LIPH 160920Z 14004KT 110V240 CAVOK 19/12 Q0998
10:50
V
18 °C 10 km+ - Var Var 1 kt METAR LIPH 160850Z VRB01KT CAVOK 18/13 Q0998
10:20
V
18 °C 10 km+ - Var Var 1 kt METAR LIPH 160820Z VRB01KT CAVOK 18/12 Q0998
09:50
V
18 °C 10 km+ - Var Var 2 kt METAR LIPH 160750Z VRB02KT CAVOK 18/12 Q0998
09:20
V
17 °C 10 km+ - Var Var 1 kt METAR LIPH 160720Z VRB01KT CAVOK 17/11 Q0999
08:50
V
15 °C 10 km+ - Var Var 1 kt METAR LIPH 160650Z VRB01KT CAVOK 15/11 Q0999
08:20
V
14 °C 10 km+ - Var Var 2 kt METAR LIPH 160620Z VRB02KT CAVOK 14/11 Q0999
07:50
V
14 °C 10 km+ - Var Var 1 kt METAR LIPH 160550Z VRB01KT CAVOK 14/10 Q0999
07:20
V
13 °C 10 km+ - 150° 150° 3 kt METAR LIPH 160520Z 15003KT 130V250 CAVOK 13/10 Q0999
06:50
V
13 °C 10 km+ 19.000 ft 140° 140° 2 kt METAR LIPH 160450Z AUTO 14002KT 9999 BKN190/// 13/10 Q1000
06:20
V
13 °C 10 km+ 18.000 ft 140° 140° 2 kt METAR LIPH 160420Z AUTO 14002KT 9999 OVC180/// 13/10 Q1000
05:50
V
13 °C 10 km+ 19.000 ft Var Var 2 kt METAR LIPH 160350Z AUTO VRB02KT 9999 OVC190/// 13/11 Q1000
05:20
V
13 °C 10 km+ 19.000 ft Var Var 1 kt METAR LIPH 160320Z AUTO VRB01KT 9999 OVC190/// 13/10 Q1000
04:50
V
13 °C 10 km+ 22.000 ft Var Var 2 kt METAR LIPH 160250Z AUTO VRB02KT 9999 BKN220/// 13/10 Q1001
04:20
V
13 °C 10 km+ 23.000 ft Var Var 2 kt METAR LIPH 160220Z AUTO VRB02KT 9999 BKN230/// 13/10 Q1001
03:50
V
14 °C 10 km+ - Var Var 1 kt METAR LIPH 160150Z AUTO VRB01KT 9999 FEW240/// 14/10 Q1002
03:20
V
14 °C 10 km+ - Var Var 1 kt METAR LIPH 160120Z AUTO VRB01KT 9999 NCD 14/10 Q1002
02:50
V
14 °C 10 km+ - 350° 350° 3 kt METAR LIPH 160050Z AUTO 35003KT 220V030 9999 NCD 14/10 Q1002
02:20
V
13 °C 10 km+ - Var Var 2 kt METAR LIPH 160020Z AUTO VRB02KT 9999 NCD 13/10 Q1003
01:50
V
14 °C 10 km+ - Var Var 2 kt METAR LIPH 152350Z AUTO VRB02KT 9999 NCD 14/10 Q1003
01:20
V
14 °C 10 km+ - Var Var 2 kt METAR LIPH 152320Z AUTO VRB02KT 9999 NCD 14/10 Q1004
00:50
V
14 °C 10 km+ - Var Var 1 kt METAR LIPH 152250Z AUTO VRB01KT 9999 NCD 14/09 Q1004
00:20
V
15 °C 10 km+ - 100° 100° 3 kt METAR LIPH 152220Z AUTO 10003KT 080V140 9999 NCD 15/09 Q1005

2024年4月15日

时间 代码 天气 温度 能见度 天花板 METAR/SPECI
23:50
V
17 °C 10 km+ - Var Var 2 kt METAR LIPH 152150Z AUTO VRB02KT 9999 NCD 17/10 Q1005
23:20
V
17 °C 10 km+ - Var Var 2 kt METAR LIPH 152120Z AUTO VRB02KT 9999 NCD 17/09 Q1005
22:50
V
17 °C 10 km+ - 150° 150° 3 kt METAR LIPH 152050Z 15003KT CAVOK 17/09 Q1006
22:20
V
19 °C 10 km+ - 160° 160° 3 kt METAR LIPH 152020Z 16003KT CAVOK 19/09 Q1006
21:50
V
20 °C 10 km+ - 200° 200° 4 kt METAR LIPH 151950Z 20004KT 160V250 CAVOK 20/09 Q1006
21:20
V
19 °C 10 km+ - 200° 200° 4 kt METAR LIPH 151920Z 20004KT 180V250 CAVOK 19/09 Q1006
20:50
V
21 °C 10 km+ - 210° 210° 5 kt METAR LIPH 151850Z 21005KT 170V230 CAVOK 21/09 Q1006
20:20
V
21 °C 10 km+ - 250° 250° 7 kt METAR LIPH 151820Z 25007KT CAVOK 21/09 Q1006
19:50
V
23 °C 10 km+ - 220° 220° 9 kt METAR LIPH 151750Z 22009KT CAVOK 23/08 Q1006
19:20
V
23 °C 10 km+ - 240° 240° 4 kt METAR LIPH 151720Z 24004KT 9999 FEW075 23/10 Q1007
18:50
V
24 °C 10 km+ - 220° 220° 4 kt METAR LIPH 151650Z 22004KT 180V250 9999 FEW080 24/10 Q1007
18:20
V
25 °C 10 km+ - 220° 220° 5 kt METAR LIPH 151620Z 22005KT CAVOK 25/10 Q1007
17:50
V
25 °C 10 km+ - 240° 240° 8 kt METAR LIPH 151550Z 24008KT CAVOK 25/09 Q1008
17:20
V
25 °C 10 km+ - 240° 240° 7 kt METAR LIPH 151520Z 24007KT CAVOK 25/10 Q1008
16:50
V
25 °C 10 km+ - 240° 240° 7 kt METAR LIPH 151450Z 24007KT 190V270 CAVOK 25/11 Q1008
16:20
V
25 °C 10 km+ - 240° 240° 7 kt METAR LIPH 151420Z 24007KT 180V290 CAVOK 25/11 Q1009
15:50
V
25 °C 10 km+ - 280° 280° 4 kt METAR LIPH 151350Z 28004KT 210V360 9999 SCT080 25/12 Q1009
15:20
V
25 °C 10 km+ - 280° 280° 4 kt METAR LIPH 151320Z 28004KT 230V340 9999 SCT080 25/12 Q1010
14:50
V
25 °C 10 km+ 8.100 ft Var Var 3 kt METAR LIPH 151250Z AUTO VRB03KT 9999 BKN081/// 25/12 Q1010
14:20
V
25 °C 10 km+ - 260° 260° 8 kt METAR LIPH 151220Z AUTO 26008KT 9999 SCT082/// 25/13 Q1011
13:50
V
24 °C 10 km+ - 250° 250° 7 kt METAR LIPH 151150Z AUTO 25007KT 200V280 9999 FEW086/// 24/13 Q1011
13:20
V
24 °C 10 km+ - 240° 240° 7 kt METAR LIPH 151120Z AUTO 24007KT 180V290 9999 FEW083/// 24/12 Q1012
12:50
V
24 °C 10 km+ - 220° 220° 4 kt METAR LIPH 151050Z AUTO 22004KT 130V300 9999 NCD 24/14 Q1012
12:20
V
23 °C 10 km+ - 170° 170° 3 kt METAR LIPH 151020Z AUTO 17003KT 090V240 9999 NCD 23/15 Q1013
11:50
V
23 °C 10 km+ - Var Var 4 kt METAR LIPH 150950Z AUTO VRB04KT 9999 FEW210/// 23/14 Q1013
11:20
V
22 °C 10 km+ - Var Var 2 kt METAR LIPH 150920Z AUTO VRB02KT 9999 FEW230/// 22/15 Q1013
10:50
V
22 °C 10 km+ - Var Var 1 kt METAR LIPH 150850Z AUTO VRB01KT 9999 NCD 22/15 Q1013
10:20
V
21 °C 10 km+ - 020° 020° 4 kt METAR LIPH 150820Z AUTO 02004KT 340V140 9999 R07/1000N NCD 21/14 Q1013
09:50
V
20 °C 10 km+ - 020° 020° 4 kt METAR LIPH 150750Z AUTO 02004KT 340V060 9999 R07/1300 NCD 20/14 Q1013
09:20
V
19 °C 10 km+ - 020° 020° 3 kt METAR LIPH 150720Z AUTO 02003KT 340V050 9999 NCD 19/14 Q1014
08:50
V
18 °C 10 km+ - 030° 030° 3 kt METAR LIPH 150650Z AUTO 03003KT 340V070 9999 NCD 18/13 Q1014
08:20
V
18 °C 10 km+ - 010° 010° 4 kt METAR LIPH 150620Z AUTO 01004KT 330V030 9999 NCD 18/13 Q1014
07:50
V
17 °C 10 km+ - Var Var 2 kt METAR LIPH 150550Z AUTO VRB02KT 9999 NCD 17/14 Q1014
报告变更